createdAt,value
2023-04-26T06:37:48.185Z,1007.48
2023-04-26T06:37:59.043Z,1007.49
2023-04-26T06:38:07.169Z,1007.54
2023-04-26T06:38:17.374Z,1007.40
2023-04-26T06:38:27.386Z,1007.44
2023-04-26T06:38:37.553Z,1007.44
2023-04-26T06:38:58.364Z,1007.43
2023-04-26T06:39:07.932Z,1007.43
2023-04-26T06:39:17.963Z,1007.43
2023-04-26T06:39:28.189Z,1007.44
2023-04-26T06:39:38.341Z,1007.43
2023-04-26T06:39:48.249Z,1007.40
2023-04-26T06:39:58.473Z,1007.40
2023-04-26T06:40:08.585Z,1007.42
2023-04-26T06:40:18.809Z,1007.45
2023-04-26T06:40:28.846Z,1007.43
2023-04-26T06:40:39.098Z,1007.42
2023-04-26T06:40:49.128Z,1007.43
2023-04-26T06:40:59.322Z,1007.44
2023-04-26T06:41:09.299Z,1007.44
2023-04-26T06:41:19.460Z,1007.46
2023-04-26T06:41:29.539Z,1007.49
2023-04-26T06:41:39.772Z,1007.48
2023-04-26T06:41:51.931Z,1007.43
2023-04-26T06:41:59.994Z,1007.46
2023-04-26T06:42:10.091Z,1007.46
2023-04-26T06:42:20.227Z,1007.47
2023-04-26T06:42:30.476Z,1007.53
2023-04-26T06:42:40.396Z,1007.50
2023-04-26T06:42:50.605Z,1007.50
2023-04-26T06:43:00.578Z,1007.49
2023-04-26T06:43:10.776Z,1007.51
2023-04-26T06:43:20.948Z,1007.48
2023-04-26T06:43:31.000Z,1007.50
2023-04-26T06:43:41.089Z,1007.50
2023-04-26T06:43:51.339Z,1007.52
2023-04-26T06:44:01.338Z,1007.48
2023-04-26T06:44:11.375Z,1007.45
2023-04-26T06:44:21.711Z,1007.47
2023-04-26T06:44:31.630Z,1007.50
2023-04-26T06:44:41.795Z,1007.50
2023-04-26T06:44:51.921Z,1007.49
2023-04-26T06:45:02.081Z,1007.48
2023-04-26T06:45:12.148Z,1007.50
2023-04-26T06:45:22.250Z,1007.54
2023-04-26T06:45:32.288Z,1007.55
2023-04-26T06:45:43.521Z,1007.51
2023-04-26T06:45:52.592Z,1007.51
2023-04-26T06:46:02.669Z,1007.54
2023-04-26T06:46:12.741Z,1007.49
2023-04-26T06:46:22.947Z,1007.49
2023-04-26T06:46:33.203Z,1007.52
2023-04-26T06:46:43.418Z,1007.53
2023-04-26T06:46:53.235Z,1007.52
2023-04-26T06:47:03.401Z,1007.52
2023-04-26T06:47:13.497Z,1007.50
2023-04-26T06:47:23.705Z,1007.48
2023-04-26T06:47:33.765Z,1007.51
2023-04-26T06:47:43.952Z,1007.50
2023-04-26T06:47:54.162Z,1007.49
2023-04-26T06:48:04.227Z,1007.49
2023-04-26T06:48:14.280Z,1007.44
2023-04-26T06:48:24.385Z,1007.45
2023-04-26T06:48:35.423Z,1007.49
2023-04-26T06:48:44.739Z,1007.44
2023-04-26T06:48:54.783Z,1007.45
2023-04-26T06:49:04.990Z,1007.47
2023-04-26T06:49:15.936Z,1007.45
2023-04-26T06:49:25.333Z,1007.49
2023-04-26T06:49:45.626Z,1007.49
2023-04-26T06:49:55.606Z,1007.51
2023-04-26T06:50:05.817Z,1007.47
2023-04-26T06:50:15.763Z,1007.51
2023-04-26T06:50:25.962Z,1007.52
2023-04-26T06:50:36.059Z,1007.51
2023-04-26T06:50:46.347Z,1007.47
2023-04-26T06:50:56.444Z,1007.46
2023-04-26T06:51:06.516Z,1007.48
2023-04-26T06:51:16.678Z,1007.48
2023-04-26T06:51:26.838Z,1007.47
2023-04-26T06:51:36.945Z,1007.47
2023-04-26T06:51:47.256Z,1007.46
2023-04-26T06:51:57.340Z,1007.47
2023-04-26T06:52:09.324Z,1007.48
2023-04-26T06:52:17.518Z,1007.44
2023-04-26T06:52:27.860Z,1007.46
2023-04-26T06:52:38.275Z,1007.44
2023-04-26T06:52:47.840Z,1007.46
2023-04-26T06:52:58.036Z,1007.48
2023-04-26T06:53:08.249Z,1007.46
2023-04-26T06:53:18.333Z,1007.44
2023-04-26T06:53:28.478Z,1007.47
2023-04-26T06:53:38.528Z,1007.49
2023-04-26T06:53:48.697Z,1007.51
2023-04-26T06:53:58.660Z,1007.51
2023-04-26T06:54:09.012Z,1007.46
2023-04-26T06:54:19.049Z,1007.49
2023-04-26T06:54:29.103Z,1007.50
2023-04-26T06:54:46.266Z,1007.46
2023-04-26T06:54:57.525Z,1007.46
2023-04-26T06:55:03.779Z,1007.50
2023-04-26T06:55:14.396Z,1007.49
2023-04-26T06:55:23.992Z,1007.48
2023-04-26T06:55:34.276Z,1007.49
2023-04-26T06:55:44.420Z,1007.49
2023-04-26T06:56:04.523Z,1007.50
2023-04-26T06:56:14.781Z,1007.46
2023-04-26T06:56:24.804Z,1007.47
2023-04-26T06:56:34.892Z,1007.47
2023-04-26T06:56:45.108Z,1007.52
2023-04-26T06:56:55.967Z,1007.49
2023-04-26T06:57:05.255Z,1007.48
2023-04-26T06:57:15.504Z,1007.50
2023-04-26T06:57:25.637Z,1007.48
2023-04-26T06:57:36.439Z,1007.52
2023-04-26T06:57:45.913Z,1007.47
2023-04-26T06:57:56.030Z,1007.46
2023-04-26T06:58:06.072Z,1007.47
2023-04-26T06:58:16.807Z,1007.42
2023-04-26T06:58:26.388Z,1007.45
2023-04-26T06:58:36.569Z,1007.43
2023-04-26T06:58:46.622Z,1007.40
2023-04-26T06:58:56.786Z,1007.44
2023-04-26T06:59:06.877Z,1007.44
2023-04-26T06:59:17.347Z,1007.40
2023-04-26T06:59:27.069Z,1007.40
2023-04-26T06:59:37.247Z,1007.43
2023-04-26T06:59:47.260Z,1007.41
2023-04-26T06:59:57.400Z,1007.36
2023-04-26T07:00:07.514Z,1007.37
2023-04-26T07:00:17.849Z,1007.36
2023-04-26T07:00:27.798Z,1007.39
2023-04-26T07:00:37.969Z,1007.37
2023-04-26T07:00:47.933Z,1007.37
2023-04-26T07:00:58.211Z,1007.32
2023-04-26T07:01:08.322Z,1007.33
2023-04-26T07:01:18.457Z,1007.30
2023-04-26T07:01:28.549Z,1007.28
2023-04-26T07:01:38.684Z,1007.27
2023-04-26T07:01:49.044Z,1007.27
2023-04-26T07:01:58.852Z,1007.27
2023-04-26T07:02:09.149Z,1007.27
2023-04-26T07:02:19.308Z,1007.22
2023-04-26T07:02:29.410Z,1007.21
2023-04-26T07:02:39.787Z,1007.20
2023-04-26T07:02:49.412Z,1007.18
2023-04-26T07:02:59.770Z,1007.14
2023-04-26T07:03:09.870Z,1007.11
2023-04-26T07:03:20.199Z,1007.11
2023-04-26T07:03:30.013Z,1007.06
2023-04-26T07:03:40.171Z,1007.00
2023-04-26T07:03:50.262Z,1006.99
2023-04-26T07:04:00.392Z,1006.95
2023-04-26T07:04:10.581Z,1006.92
2023-04-26T07:04:20.738Z,1006.93
2023-04-26T07:04:30.948Z,1006.92
2023-04-26T07:04:41.095Z,1006.90
2023-04-26T07:04:50.951Z,1006.87
2023-04-26T07:05:02.111Z,1006.85
2023-04-26T07:05:11.338Z,1006.88
2023-04-26T07:05:21.462Z,1006.85
2023-04-26T07:05:31.363Z,1006.85
2023-04-26T07:05:41.524Z,1006.81
2023-04-26T07:05:51.496Z,1006.83
2023-04-26T07:06:11.721Z,1006.80
2023-04-26T07:06:21.917Z,1006.80
2023-04-26T07:06:32.020Z,1006.77
2023-04-26T07:06:42.283Z,1006.77
2023-04-26T07:06:52.250Z,1006.76
2023-04-26T07:07:02.364Z,1006.75
2023-04-26T07:07:13.612Z,1006.73
2023-04-26T07:07:22.720Z,1006.73
2023-04-26T07:07:32.821Z,1006.71
2023-04-26T07:07:42.970Z,1006.68
2023-04-26T07:07:53.109Z,1006.60
2023-04-26T07:08:03.142Z,1006.65
2023-04-26T07:08:13.379Z,1006.59
2023-04-26T07:08:23.367Z,1006.59
2023-04-26T07:08:33.526Z,1006.58
2023-04-26T07:08:43.636Z,1006.50
2023-04-26T07:08:54.050Z,1006.47
2023-04-26T07:09:03.866Z,1006.44
2023-04-26T07:09:14.048Z,1006.38
2023-04-26T07:09:24.088Z,1006.39
2023-04-26T07:09:34.331Z,1006.36
2023-04-26T07:09:44.444Z,1006.35
2023-04-26T07:09:54.568Z,1006.32
2023-04-26T07:10:04.612Z,1006.35
2023-04-26T07:10:14.733Z,1006.30
2023-04-26T07:10:24.966Z,1006.25
2023-04-26T07:10:35.032Z,1006.25
2023-04-26T07:10:45.143Z,1006.24
2023-04-26T07:10:55.212Z,1006.24
2023-04-26T07:11:05.323Z,1006.26
2023-04-26T07:11:15.430Z,1006.28
2023-04-26T07:11:26.259Z,1006.31
2023-04-26T07:11:35.711Z,1006.31
2023-04-26T07:11:45.742Z,1006.29
2023-04-26T07:11:56.032Z,1006.34
2023-04-26T07:12:06.060Z,1006.34
2023-04-26T07:12:16.154Z,1006.34
2023-04-26T07:12:26.233Z,1006.34
2023-04-26T07:12:36.408Z,1006.39
2023-04-26T07:12:46.445Z,1006.40
2023-04-26T07:12:56.575Z,1006.41
2023-04-26T07:13:08.194Z,1006.48
2023-04-26T07:13:16.935Z,1006.44
2023-04-26T07:13:26.836Z,1006.45
2023-04-26T07:13:36.977Z,1006.47
2023-04-26T07:13:49.975Z,1006.50
2023-04-26T07:13:57.545Z,1006.50
2023-04-26T07:14:07.474Z,1006.54
2023-04-26T07:14:17.572Z,1006.51
2023-04-26T07:14:27.590Z,1006.56
2023-04-26T07:14:39.323Z,1006.57
2023-04-26T07:14:47.804Z,1006.54
2023-04-26T07:14:58.005Z,1006.54
2023-04-26T07:15:08.079Z,1006.57
2023-04-26T07:15:18.129Z,1006.58
2023-04-26T07:15:28.192Z,1006.56
2023-04-26T07:15:38.401Z,1006.59
2023-04-26T07:15:48.421Z,1006.61
2023-04-26T07:15:58.577Z,1006.57
2023-04-26T07:16:08.605Z,1006.62
2023-04-26T07:16:18.821Z,1006.63
2023-04-26T07:16:28.859Z,1006.58
2023-04-26T07:16:39.067Z,1006.60
2023-04-26T07:16:49.103Z,1006.57
2023-04-26T07:16:59.325Z,1006.56
2023-04-26T07:17:09.412Z,1006.60
2023-04-26T07:17:19.561Z,1006.57
2023-04-26T07:17:29.753Z,1006.58
2023-04-26T07:17:39.738Z,1006.57
2023-04-26T07:17:49.816Z,1006.56
2023-04-26T07:18:00.069Z,1006.54
2023-04-26T07:18:10.118Z,1006.58
2023-04-26T07:18:20.376Z,1006.59
2023-04-26T07:18:30.358Z,1006.60
2023-04-26T07:18:40.516Z,1006.51
2023-04-26T07:18:50.520Z,1006.56
2023-04-26T07:19:00.836Z,1006.50
2023-04-26T07:19:10.938Z,1006.50
2023-04-26T07:19:21.056Z,1006.48
2023-04-26T07:19:31.182Z,1006.52
2023-04-26T07:19:41.532Z,1006.53
2023-04-26T07:19:51.513Z,1006.47
2023-04-26T07:20:01.570Z,1006.48
2023-04-26T07:20:11.780Z,1006.49
2023-04-26T07:20:21.876Z,1006.51
2023-04-26T07:20:31.905Z,1006.52
2023-04-26T07:20:42.073Z,1006.48
2023-04-26T07:20:52.272Z,1006.48
2023-04-26T07:21:02.312Z,1006.48
2023-04-26T07:21:12.373Z,1006.48
2023-04-26T07:21:22.827Z,1006.48
2023-04-26T07:21:32.776Z,1006.49
2023-04-26T07:21:42.877Z,1006.51
2023-04-26T07:21:53.018Z,1006.41
2023-04-26T07:22:03.063Z,1006.43
2023-04-26T07:22:13.329Z,1006.42
2023-04-26T07:22:23.428Z,1006.42
2023-04-26T07:22:33.410Z,1006.43
2023-04-26T07:22:43.604Z,1006.40
2023-04-26T07:22:53.598Z,1006.37
2023-04-26T07:23:03.771Z,1006.36
2023-04-26T07:23:13.751Z,1006.34
2023-04-26T07:23:24.095Z,1006.34
2023-04-26T07:23:34.082Z,1006.30
2023-04-26T07:23:44.202Z,1006.28
2023-04-26T07:23:54.463Z,1006.28
2023-04-26T07:24:04.419Z,1006.28
2023-04-26T07:24:14.477Z,1006.22
2023-04-26T07:24:24.709Z,1006.24
2023-04-26T07:24:34.753Z,1006.20
2023-04-26T07:24:45.028Z,1006.22
2023-04-26T07:24:55.818Z,1006.17
2023-04-26T07:25:05.312Z,1006.15
2023-04-26T07:25:15.220Z,1006.14
2023-04-26T07:25:25.481Z,1006.11
2023-04-26T07:25:35.497Z,1006.06
2023-04-26T07:25:45.784Z,1006.01
2023-04-26T07:25:57.600Z,1006.04
2023-04-26T07:26:06.108Z,1006.02
2023-04-26T07:26:16.102Z,1005.99
2023-04-26T07:26:26.538Z,1006.00
2023-04-26T07:26:37.252Z,1006.02
2023-04-26T07:26:46.556Z,1006.06
2023-04-26T07:26:56.715Z,1006.11
2023-04-26T07:27:06.776Z,1006.11
2023-04-26T07:27:16.954Z,1006.13
2023-04-26T07:27:27.011Z,1006.18
2023-04-26T07:27:47.401Z,1006.30
2023-04-26T07:27:57.381Z,1006.33
2023-04-26T07:28:07.539Z,1006.34
2023-04-26T07:28:17.602Z,1006.39
2023-04-26T07:28:27.778Z,1006.40
2023-04-26T07:28:37.902Z,1006.47
2023-04-26T07:28:47.942Z,1006.47
2023-04-26T07:28:58.058Z,1006.57
2023-04-26T07:29:08.300Z,1006.60
2023-04-26T07:29:18.331Z,1006.65
2023-04-26T07:29:28.486Z,1006.74
2023-04-26T07:29:38.527Z,1006.78
2023-04-26T07:29:48.698Z,1006.78
2023-04-26T07:29:58.846Z,1006.84
2023-04-26T07:30:09.077Z,1006.88
2023-04-26T07:30:19.154Z,1006.90
2023-04-26T07:30:29.423Z,1006.89
2023-04-26T07:30:39.387Z,1006.80
